createdAt,value
2023-02-15T00:01:50.851Z,13.32
2023-02-15T00:08:20.878Z,13.55
2023-02-15T00:14:27.011Z,14.82
2023-02-15T00:17:08.544Z,14.38
2023-02-15T00:19:49.979Z,13.48
2023-02-15T00:26:20.881Z,13.20
2023-02-15T00:35:19.418Z,13.27
2023-02-15T00:43:23.739Z,12.52
2023-02-15T00:45:51.151Z,13.77
2023-02-15T00:48:21.693Z,13.65
2023-02-15T00:50:58.724Z,14.77
2023-02-15T00:53:31.073Z,13.95
2023-02-15T00:56:08.649Z,12.82
2023-02-15T00:58:35.647Z,14.05
2023-02-15T01:01:12.182Z,14.40
2023-02-15T01:03:40.047Z,14.10
2023-02-15T01:06:07.176Z,13.85
2023-02-15T01:08:34.463Z,14.82
2023-02-15T01:11:13.774Z,14.10
2023-02-15T01:13:41.530Z,14.88
2023-02-15T01:16:09.497Z,12.70
2023-02-15T01:18:37.139Z,11.48
2023-02-15T01:21:15.586Z,13.30
2023-02-15T01:23:45.151Z,14.00
2023-02-15T01:26:15.206Z,13.27
2023-02-15T01:28:44.264Z,14.10
2023-02-15T01:31:18.709Z,14.77
2023-02-15T01:36:18.616Z,13.50
2023-02-15T01:38:46.420Z,12.93
2023-02-15T01:41:30.591Z,14.80
2023-02-15T01:44:03.812Z,13.35
2023-02-15T01:49:19.034Z,13.77
2023-02-15T01:51:55.740Z,12.73
2023-02-15T01:54:39.938Z,13.90
2023-02-15T01:57:22.134Z,15.50
2023-02-15T01:59:57.846Z,13.63
2023-02-15T02:02:28.553Z,12.20
2023-02-15T02:05:07.514Z,13.13
2023-02-15T02:07:39.709Z,14.30
2023-02-15T02:10:13.252Z,12.02
2023-02-15T02:12:43.648Z,13.68
2023-02-15T02:15:11.708Z,14.95
2023-02-15T02:17:54.497Z,12.55
2023-02-15T02:20:40.538Z,13.35
2023-02-15T02:23:16.174Z,13.77
2023-02-15T02:26:14.096Z,15.23
2023-02-15T02:29:53.417Z,15.05
2023-02-15T02:33:10.091Z,13.35
2023-02-15T02:36:17.935Z,14.00
2023-02-15T02:39:05.559Z,14.65
2023-02-15T02:42:10.767Z,14.40
2023-02-15T02:45:03.373Z,17.38
2023-02-15T02:47:45.863Z,15.45
2023-02-15T02:50:26.513Z,13.88
2023-02-15T02:52:56.166Z,15.32
2023-02-15T02:56:00.888Z,13.65
2023-02-15T02:58:43.955Z,14.63
2023-02-15T03:01:38.674Z,14.90
2023-02-15T03:04:15.081Z,13.07
2023-02-15T03:06:48.196Z,15.93
2023-02-15T03:09:42.532Z,14.30
2023-02-15T03:12:15.961Z,13.52
2023-02-15T03:17:21.483Z,13.18
2023-02-15T03:19:51.534Z,14.02
2023-02-15T03:22:54.417Z,13.13
2023-02-15T03:25:24.224Z,13.60
2023-02-15T03:28:08.444Z,12.25
2023-02-15T03:30:39.008Z,12.95
2023-02-15T03:33:08.364Z,13.15
2023-02-15T03:36:01.610Z,13.70
2023-02-15T03:39:00.923Z,13.40
2023-02-15T03:41:39.664Z,14.63
2023-02-15T03:44:28.654Z,13.48
2023-02-15T03:47:15.670Z,14.90
2023-02-15T03:50:38.799Z,13.35
2023-02-15T03:53:10.610Z,15.10
2023-02-15T03:55:37.792Z,15.90
2023-02-15T03:58:25.020Z,14.82
2023-02-15T04:01:46.170Z,16.02
2023-02-15T04:04:23.129Z,14.73
2023-02-15T04:06:51.596Z,13.60
2023-02-15T04:09:37.922Z,13.82
2023-02-15T04:12:05.256Z,13.75
2023-02-15T04:14:50.828Z,15.55
2023-02-15T04:17:17.986Z,14.25
2023-02-15T04:20:03.707Z,15.07
2023-02-15T04:22:49.002Z,16.20
2023-02-15T04:25:16.280Z,14.83
2023-02-15T04:27:48.358Z,14.80
2023-02-15T04:30:19.807Z,14.40
2023-02-15T04:32:47.099Z,13.95
2023-02-15T04:35:15.206Z,16.98
2023-02-15T04:37:44.201Z,13.60
2023-02-15T04:40:15.575Z,13.85
2023-02-15T04:42:54.112Z,16.27
2023-02-15T04:45:21.242Z,15.68
2023-02-15T04:47:48.501Z,16.48
2023-02-15T04:50:15.627Z,15.52
2023-02-15T04:52:42.545Z,17.42
2023-02-15T04:55:09.822Z,16.30
2023-02-15T04:57:36.912Z,16.25
2023-02-15T05:00:04.763Z,17.55
2023-02-15T05:02:31.714Z,16.55
2023-02-15T05:04:58.887Z,15.35
2023-02-15T05:07:25.916Z,16.48
2023-02-15T05:09:52.892Z,16.77
2023-02-15T05:12:19.890Z,15.75
2023-02-15T05:14:46.910Z,15.18
2023-02-15T05:17:13.986Z,15.63
2023-02-15T05:19:40.982Z,16.35
2023-02-15T05:22:07.965Z,15.43
2023-02-15T05:24:53.648Z,15.32
2023-02-15T05:27:38.916Z,14.07
2023-02-15T05:30:07.057Z,14.93
2023-02-15T05:32:34.314Z,16.20
2023-02-15T05:35:01.585Z,14.50
2023-02-15T05:37:28.853Z,15.40
2023-02-15T05:39:56.881Z,15.20
2023-02-15T05:42:24.816Z,16.58
2023-02-15T05:44:51.716Z,15.00
2023-02-15T05:47:18.703Z,15.88
2023-02-15T05:49:45.581Z,14.20
2023-02-15T05:52:13.152Z,16.25
2023-02-15T05:54:40.112Z,15.80
2023-02-15T05:57:07.119Z,14.85
2023-02-15T05:59:33.987Z,14.77
2023-02-15T06:02:01.026Z,16.10
2023-02-15T06:04:28.109Z,16.90
2023-02-15T06:06:55.005Z,14.70
2023-02-15T06:09:21.983Z,14.50
2023-02-15T06:11:48.880Z,15.27
2023-02-15T06:14:15.875Z,14.65
2023-02-15T06:16:42.772Z,13.68
2023-02-15T06:19:09.673Z,15.02
2023-02-15T06:21:36.729Z,12.45
2023-02-15T06:24:03.880Z,15.48
2023-02-15T06:26:30.908Z,14.57
2023-02-15T06:28:57.925Z,14.18
2023-02-15T06:31:24.986Z,13.48
2023-02-15T06:33:51.908Z,15.20
2023-02-15T06:36:18.905Z,13.95
2023-02-15T06:38:45.800Z,14.32
2023-02-15T06:41:12.685Z,15.73
2023-02-15T06:43:41.032Z,13.68
2023-02-15T06:46:08.373Z,14.25
2023-02-15T06:48:35.277Z,14.02
2023-02-15T06:51:02.300Z,13.35
2023-02-15T06:53:29.416Z,13.52
2023-02-15T06:56:07.664Z,14.75
2023-02-15T06:58:35.031Z,13.25
2023-02-15T07:01:01.957Z,14.45
2023-02-15T07:03:28.920Z,14.32
2023-02-15T07:06:01.595Z,14.50
2023-02-15T07:08:30.093Z,13.75
2023-02-15T07:11:17.616Z,14.18
2023-02-15T07:13:44.567Z,13.93
2023-02-15T07:16:11.927Z,13.85
2023-02-15T07:18:39.762Z,14.48
2023-02-15T07:21:10.424Z,16.55
2023-02-15T07:23:38.634Z,14.98
2023-02-15T07:26:07.072Z,14.88
2023-02-15T07:28:37.494Z,15.13
2023-02-15T07:31:06.026Z,16.58
2023-02-15T07:33:34.312Z,15.88
2023-02-15T07:36:06.096Z,15.10
2023-02-15T07:38:37.413Z,15.80
2023-02-15T07:41:10.933Z,17.33
2023-02-15T07:43:41.379Z,17.70
2023-02-15T07:46:15.603Z,16.95
2023-02-15T07:48:43.793Z,16.42
2023-02-15T07:51:12.420Z,16.38
2023-02-15T07:53:40.320Z,14.98
2023-02-15T07:56:13.123Z,17.13
2023-02-15T07:58:53.956Z,17.00
2023-02-15T08:01:24.028Z,17.15
2023-02-15T08:03:51.443Z,15.48
2023-02-15T08:06:18.749Z,14.95
2023-02-15T08:08:45.679Z,14.95
2023-02-15T08:11:26.755Z,18.15
2023-02-15T08:13:57.425Z,17.67
2023-02-15T08:16:42.146Z,16.10
2023-02-15T08:19:19.162Z,16.65
2023-02-15T08:21:55.532Z,15.82
2023-02-15T08:24:28.473Z,18.23
2023-02-15T08:26:56.187Z,19.10
2023-02-15T08:29:28.840Z,20.08
2023-02-15T08:32:02.939Z,18.85
2023-02-15T08:34:33.576Z,18.85
2023-02-15T08:37:00.639Z,20.00
2023-02-15T08:39:27.608Z,18.17
2023-02-15T08:41:54.618Z,17.17
2023-02-15T08:44:21.787Z,18.38
2023-02-15T08:46:50.201Z,19.92
2023-02-15T08:49:20.660Z,18.92
2023-02-15T08:51:49.423Z,19.05
2023-02-15T08:54:20.100Z,20.35
2023-02-15T08:56:47.561Z,17.98
2023-02-15T08:59:19.968Z,19.83
2023-02-15T09:01:48.867Z,19.02
2023-02-15T09:04:16.872Z,20.15
2023-02-15T09:06:48.331Z,18.05
2023-02-15T09:09:16.911Z,17.50
2023-02-15T09:11:46.472Z,19.00
2023-02-15T09:14:21.099Z,18.92
2023-02-15T09:16:52.657Z,19.75
2023-02-15T09:19:22.738Z,19.33
2023-02-15T09:21:49.739Z,19.35
2023-02-15T09:24:18.793Z,20.45
2023-02-15T09:26:49.106Z,18.10
2023-02-15T09:29:18.140Z,16.40
2023-02-15T09:31:49.678Z,17.08
2023-02-15T09:34:21.191Z,20.48
2023-02-15T09:36:48.891Z,19.40
2023-02-15T09:39:25.756Z,19.13
2023-02-15T09:42:40.594Z,18.20
2023-02-15T09:45:47.490Z,17.88
2023-02-15T09:48:41.352Z,17.92
2023-02-15T09:51:42.616Z,15.68
2023-02-15T09:54:58.931Z,16.80
2023-02-15T09:58:00.096Z,15.00
2023-02-15T10:00:51.239Z,16.60
2023-02-15T10:04:04.945Z,17.60
2023-02-15T10:06:57.816Z,15.50
2023-02-15T10:09:51.917Z,17.38
2023-02-15T10:12:44.376Z,15.98
2023-02-15T10:15:29.391Z,16.27
2023-02-15T10:18:32.151Z,17.35
2023-02-15T10:21:21.278Z,13.35
2023-02-15T10:24:06.029Z,13.32
2023-02-15T10:26:46.634Z,14.07
2023-02-15T10:29:42.649Z,16.38
2023-02-15T10:32:47.528Z,14.82
2023-02-15T10:35:58.232Z,15.23
2023-02-15T10:38:44.066Z,16.00
2023-02-15T10:41:37.781Z,14.52
2023-02-15T10:44:33.894Z,16.90
2023-02-15T10:47:14.320Z,16.13
2023-02-15T10:49:59.141Z,15.55
2023-02-15T10:52:55.557Z,16.00
2023-02-15T10:56:08.505Z,14.50
2023-02-15T10:58:58.616Z,16.20
2023-02-15T11:01:40.735Z,14.00
2023-02-15T11:04:42.032Z,13.60
2023-02-15T11:07:38.340Z,13.48
2023-02-15T11:10:26.354Z,14.77
2023-02-15T11:12:56.248Z,13.95
2023-02-15T11:16:02.289Z,14.20
2023-02-15T11:18:52.161Z,12.90
2023-02-15T11:21:27.480Z,14.48
2023-02-15T11:23:55.723Z,15.75
2023-02-15T11:26:29.459Z,14.73
2023-02-15T11:29:15.655Z,14.48
2023-02-15T11:32:03.829Z,14.43
2023-02-15T11:34:37.748Z,13.23
2023-02-15T11:37:19.763Z,15.57
2023-02-15T11:39:52.687Z,15.10
2023-02-15T11:42:28.649Z,14.30
2023-02-15T11:45:23.909Z,12.27
2023-02-15T11:47:54.085Z,13.20
2023-02-15T11:50:28.324Z,13.77
2023-02-15T11:53:04.421Z,16.23
2023-02-15T11:55:32.692Z,15.02
2023-02-15T11:58:17.506Z,16.05
2023-02-15T12:00:48.458Z,13.65
2023-02-15T12:03:30.866Z,15.45
2023-02-15T12:06:04.337Z,15.00
2023-02-15T12:08:50.442Z,16.13
2023-02-15T12:11:27.244Z,14.15
2023-02-15T12:14:18.494Z,14.80
2023-02-15T12:16:57.222Z,16.02
2023-02-15T12:19:41.632Z,14.75
2023-02-15T12:22:34.371Z,13.73
2023-02-15T12:25:30.743Z,14.13
2023-02-15T12:27:58.921Z,16.67
2023-02-15T12:30:36.553Z,15.13
2023-02-15T12:33:16.662Z,15.13
2023-02-15T12:36:08.339Z,15.75
2023-02-15T12:38:36.938Z,15.95
2023-02-15T12:41:28.849Z,14.20
2023-02-15T12:44:30.534Z,15.70
2023-02-15T12:47:16.161Z,15.32
2023-02-15T12:53:12.050Z,13.98
2023-02-15T12:55:45.334Z,15.30
2023-02-15T12:58:30.627Z,14.27
2023-02-15T13:01:18.872Z,17.65
2023-02-15T13:04:10.738Z,15.75
2023-02-15T13:06:53.405Z,15.98
2023-02-15T13:09:33.467Z,13.93
2023-02-15T13:12:27.800Z,16.30
2023-02-15T13:14:57.757Z,13.60
2023-02-15T13:17:46.784Z,15.88
2023-02-15T13:20:41.972Z,16.33
2023-02-15T13:23:28.538Z,15.85
2023-02-15T13:26:00.279Z,14.57
2023-02-15T13:29:00.245Z,14.23
2023-02-15T13:31:33.846Z,15.70
2023-02-15T13:34:20.910Z,14.55
2023-02-15T13:37:17.666Z,13.55
2023-02-15T13:40:22.458Z,16.02
2023-02-15T13:43:07.649Z,15.20
2023-02-15T13:46:06.840Z,14.60
2023-02-15T14:32:47.698Z,17.63
2023-02-15T14:35:19.006Z,17.65
2023-02-15T14:38:18.168Z,18.75
2023-02-15T14:44:52.391Z,18.27
2023-02-15T14:47:34.820Z,16.20
2023-02-15T14:51:15.064Z,18.17
2023-02-15T14:53:49.483Z,18.67
2023-02-15T14:56:27.803Z,18.48
2023-02-15T14:59:03.258Z,18.13
2023-02-15T15:01:38.772Z,19.73
2023-02-15T15:04:45.342Z,19.85
2023-02-15T15:07:34.146Z,17.50
2023-02-15T15:10:25.884Z,19.25
2023-02-15T15:12:56.441Z,21.35
2023-02-15T15:16:43.394Z,18.73
2023-02-15T15:19:52.032Z,20.58
2023-02-15T15:22:44.699Z,20.35
2023-02-15T15:42:16.426Z,19.00
2023-02-15T15:45:25.430Z,19.83
2023-02-15T15:51:54.155Z,20.20
2023-02-15T15:54:38.807Z,19.85
2023-02-15T16:00:35.128Z,21.98
2023-02-15T16:08:19.494Z,19.92
2023-02-15T16:12:55.310Z,21.23
2023-02-15T16:20:09.861Z,20.35
2023-02-15T16:22:51.580Z,19.90
2023-02-15T16:26:26.735Z,19.05
2023-02-15T16:28:57.338Z,19.65
2023-02-15T16:31:24.396Z,16.92
2023-02-15T16:33:57.270Z,18.92
2023-02-15T16:36:30.377Z,21.00
2023-02-15T16:38:58.348Z,20.92
2023-02-15T16:41:33.591Z,18.92
2023-02-15T16:44:14.633Z,20.20
2023-02-15T16:46:52.565Z,19.10
2023-02-15T16:49:57.313Z,19.77
2023-02-15T16:52:34.904Z,19.98
2023-02-15T16:55:20.767Z,19.38
2023-02-15T16:57:52.084Z,20.83
2023-02-15T17:00:24.432Z,19.30
2023-02-15T17:03:48.636Z,19.05
2023-02-15T17:10:00.005Z,20.15
2023-02-15T17:19:57.097Z,19.35
2023-02-15T17:22:27.982Z,16.88
2023-02-15T17:25:06.805Z,18.58
2023-02-15T17:28:20.979Z,18.52
2023-02-15T17:30:50.749Z,20.15
2023-02-15T17:33:37.983Z,19.40
2023-02-15T17:36:30.835Z,18.58
2023-02-15T17:38:58.732Z,22.02
2023-02-15T17:41:57.561Z,19.88
2023-02-15T17:44:32.931Z,20.05
2023-02-15T17:47:01.528Z,19.35
2023-02-15T17:49:34.741Z,21.67
2023-02-15T17:52:04.856Z,21.63
2023-02-15T17:55:17.821Z,22.63
2023-02-15T18:01:12.347Z,21.55
2023-02-15T18:04:13.619Z,19.63
2023-02-15T18:07:42.589Z,18.30
2023-02-15T18:10:38.778Z,20.42
2023-02-15T18:13:15.453Z,20.48
2023-02-15T18:15:51.108Z,19.58
2023-02-15T18:18:24.784Z,20.40
2023-02-15T18:20:52.226Z,20.45
2023-02-15T18:23:19.370Z,20.75
2023-02-15T18:25:48.972Z,20.20
2023-02-15T18:28:17.358Z,20.52
2023-02-15T18:30:45.043Z,21.05
2023-02-15T18:33:56.501Z,20.67
2023-02-15T18:36:28.618Z,20.83
2023-02-15T18:39:01.409Z,18.77
2023-02-15T18:41:31.059Z,17.80
2023-02-15T18:43:57.966Z,18.50
2023-02-15T18:46:25.319Z,19.98
2023-02-15T18:48:53.129Z,18.23
2023-02-15T18:51:23.536Z,18.58
2023-02-15T18:53:53.942Z,17.83
2023-02-15T18:56:26.317Z,19.52
2023-02-15T18:58:56.035Z,19.17
2023-02-15T19:01:24.127Z,21.33
2023-02-15T19:03:52.184Z,20.15
2023-02-15T19:57:54.603Z,23.65
2023-02-15T20:07:27.113Z,23.20
2023-02-15T20:16:33.330Z,23.73
2023-02-15T20:19:01.228Z,21.48
2023-02-15T20:27:56.792Z,22.42
2023-02-15T20:30:31.300Z,23.42
2023-02-15T20:33:05.190Z,23.08
2023-02-15T20:36:00.528Z,23.55
2023-02-15T20:41:37.718Z,23.33
2023-02-15T20:44:29.764Z,21.60
2023-02-15T20:47:00.417Z,22.05
2023-02-15T20:49:28.757Z,21.55
2023-02-15T20:51:58.903Z,22.30
2023-02-15T20:57:22.488Z,20.15
2023-02-15T20:59:49.980Z,21.83
2023-02-15T21:02:23.942Z,21.80
2023-02-15T21:04:50.942Z,21.45
2023-02-15T21:07:21.675Z,20.83
2023-02-15T21:09:48.971Z,14.73
2023-02-15T21:12:18.974Z,21.80
2023-02-15T21:14:49.031Z,21.98
2023-02-15T21:17:18.777Z,23.42
2023-02-15T21:19:48.905Z,22.20
2023-02-15T21:22:17.299Z,20.48
2023-02-15T21:31:23.268Z,21.23
2023-02-15T21:33:55.442Z,19.98
2023-02-15T21:36:26.171Z,21.90
2023-02-15T21:39:00.407Z,20.08
2023-02-15T21:41:47.876Z,21.92
2023-02-15T21:44:38.533Z,23.30
2023-02-15T21:47:25.506Z,21.15
2023-02-15T21:49:53.293Z,20.52
2023-02-15T21:52:23.991Z,20.55
2023-02-15T21:54:51.361Z,19.02
2023-02-15T21:57:22.030Z,22.65
2023-02-15T21:59:49.515Z,21.48
2023-02-15T22:02:29.526Z,22.73
2023-02-15T22:04:59.306Z,22.65
2023-02-15T22:07:26.786Z,22.77
2023-02-15T22:09:55.615Z,21.55
2023-02-15T22:12:23.591Z,22.48
2023-02-15T22:14:54.058Z,20.92
2023-02-15T22:17:29.250Z,21.48
2023-02-15T22:19:58.094Z,22.20
2023-02-15T22:22:30.309Z,21.25
2023-02-15T22:25:01.485Z,22.83
2023-02-15T22:27:39.387Z,21.27
2023-02-15T22:30:40.305Z,23.33
2023-02-15T22:33:32.427Z,21.90
2023-02-15T22:42:14.533Z,22.13
2023-02-15T22:45:27.474Z,22.00
2023-02-15T22:48:10.511Z,19.45
2023-02-15T22:50:50.312Z,22.77
2023-02-15T22:53:23.442Z,22.58
2023-02-15T22:56:09.799Z,22.25
2023-02-15T22:58:40.821Z,21.50
2023-02-15T23:01:27.518Z,22.52
2023-02-15T23:03:59.152Z,23.58
2023-02-15T23:06:31.571Z,23.25
2023-02-15T23:09:08.349Z,21.55
2023-02-15T23:11:38.324Z,23.98
2023-02-15T23:17:08.901Z,23.10
2023-02-15T23:20:07.624Z,22.73
2023-02-15T23:29:17.998Z,23.83
2023-02-15T23:31:52.363Z,23.08
2023-02-15T23:34:35.973Z,24.00
2023-02-15T23:37:31.563Z,24.33
2023-02-15T23:40:17.302Z,22.15
2023-02-15T23:45:45.876Z,24.45
2023-02-15T23:48:40.262Z,23.75
2023-02-15T23:51:12.090Z,23.90
2023-02-15T23:56:28.159Z,25.85
2023-02-15T23:59:45.103Z,24.52
